createdAt,value
2018-10-03T00:00:44.826Z,0.00
2018-10-03T00:01:44.836Z,0.00
2018-10-03T00:02:44.038Z,0.00
2018-10-03T00:03:43.866Z,0.00
2018-10-03T00:04:43.834Z,0.00
2018-10-03T00:05:43.808Z,0.00
2018-10-03T00:06:43.778Z,0.00
2018-10-03T00:07:43.880Z,0.00
2018-10-03T00:08:44.322Z,0.00
2018-10-03T00:09:44.328Z,0.00
2018-10-03T00:10:44.323Z,0.00
2018-10-03T00:11:44.338Z,0.00
2018-10-03T00:12:43.888Z,0.00
2018-10-03T00:13:43.573Z,0.00
2018-10-03T00:14:43.545Z,0.00
2018-10-03T00:15:43.518Z,0.00
2018-10-03T00:16:43.480Z,0.00
2018-10-03T00:17:43.878Z,0.00
2018-10-03T00:18:43.885Z,0.00
2018-10-03T00:19:44.326Z,0.00
2018-10-03T00:20:43.365Z,0.00
2018-10-03T00:21:43.412Z,0.00
2018-10-03T00:22:43.824Z,0.00
2018-10-03T00:23:43.381Z,0.00
2018-10-03T00:24:43.828Z,0.00
2018-10-03T00:25:43.214Z,0.00
2018-10-03T00:26:43.830Z,0.00
2018-10-03T00:27:43.168Z,0.00
2018-10-03T00:28:43.172Z,0.00
2018-10-03T00:29:43.392Z,0.00
2018-10-03T00:30:43.825Z,0.00
2018-10-03T00:31:43.038Z,0.00
2018-10-03T00:32:43.058Z,0.00
2018-10-03T00:33:42.990Z,0.00
2018-10-03T00:34:43.378Z,0.00
2018-10-03T00:35:43.829Z,0.00
2018-10-03T00:36:42.889Z,0.00
2018-10-03T00:37:43.824Z,0.00
2018-10-03T00:38:42.871Z,0.00
2018-10-03T00:39:42.843Z,0.00
2018-10-03T00:40:42.775Z,0.00
2018-10-03T00:41:42.739Z,0.00
2018-10-03T00:42:43.333Z,0.00
2018-10-03T00:43:42.709Z,0.00
2018-10-03T00:44:42.694Z,0.00
2018-10-03T00:45:42.628Z,0.00
2018-10-03T00:46:43.326Z,0.00
2018-10-03T00:47:42.616Z,0.00
2018-10-03T00:48:43.335Z,0.00
2018-10-03T00:49:42.883Z,0.00
2018-10-03T00:50:42.512Z,0.00
2018-10-03T00:51:42.492Z,0.00
2018-10-03T00:52:43.340Z,0.00
2018-10-03T00:53:42.438Z,0.00
2018-10-03T00:54:42.360Z,0.00
2018-10-03T00:55:42.835Z,0.00
2018-10-03T00:56:42.376Z,0.00
2018-10-03T00:57:42.268Z,0.00
2018-10-03T00:58:42.293Z,0.00
2018-10-03T00:59:42.221Z,0.00
2018-10-03T01:00:42.183Z,0.00
2018-10-03T01:01:42.843Z,0.00
2018-10-03T01:02:42.389Z,0.00
2018-10-03T01:03:42.147Z,0.00
2018-10-03T01:04:42.854Z,0.00
2018-10-03T01:05:42.035Z,0.00
2018-10-03T01:06:42.008Z,0.00
2018-10-03T01:07:42.031Z,0.00
2018-10-03T01:08:41.943Z,0.00
2018-10-03T01:09:41.923Z,0.00
2018-10-03T01:10:42.835Z,0.00
2018-10-03T01:11:42.839Z,0.00
2018-10-03T01:12:44.885Z,0.00
2018-10-03T01:13:41.797Z,0.00
2018-10-03T01:14:42.334Z,0.00
2018-10-03T01:15:41.751Z,0.00
2018-10-03T01:16:41.753Z,0.00
2018-10-03T01:17:41.682Z,0.00
2018-10-03T01:18:42.265Z,0.00
2018-10-03T01:19:41.636Z,0.00
2018-10-03T01:20:41.593Z,0.00
2018-10-03T01:21:41.563Z,0.00
2018-10-03T01:22:41.536Z,0.00
2018-10-03T01:23:42.002Z,0.00
2018-10-03T01:24:42.331Z,0.00
2018-10-03T01:25:42.348Z,0.00
2018-10-03T01:26:41.423Z,0.00
2018-10-03T01:27:41.393Z,0.00
2018-10-03T01:28:41.890Z,0.00
2018-10-03T01:29:41.396Z,0.00
2018-10-03T01:30:41.836Z,0.00
2018-10-03T01:31:41.270Z,0.00
2018-10-03T01:32:41.831Z,0.00
2018-10-03T01:33:41.209Z,0.00
2018-10-03T01:34:41.388Z,0.00
2018-10-03T01:35:41.150Z,0.00
2018-10-03T01:36:41.837Z,0.00
2018-10-03T01:37:41.098Z,0.00
2018-10-03T01:38:41.833Z,0.00
2018-10-03T01:39:41.389Z,0.00
2018-10-03T01:40:41.010Z,0.00
2018-10-03T01:41:40.979Z,0.00
2018-10-03T01:42:41.843Z,0.00
2018-10-03T01:43:41.396Z,0.00
2018-10-03T01:44:41.834Z,0.00
2018-10-03T01:45:41.835Z,0.00
2018-10-03T01:46:40.826Z,0.00
2018-10-03T01:47:40.797Z,0.00
2018-10-03T01:48:40.818Z,0.00
2018-10-03T01:49:40.891Z,0.00
2018-10-03T01:50:42.250Z,0.00
2018-10-03T01:51:41.337Z,0.00
2018-10-03T01:52:40.650Z,0.00
2018-10-03T01:53:40.621Z,0.00
2018-10-03T01:54:40.639Z,0.00
2018-10-03T01:55:41.340Z,0.00
2018-10-03T01:56:40.532Z,0.00
2018-10-03T01:57:40.504Z,0.00
2018-10-03T01:58:40.476Z,0.00
2018-10-03T01:59:40.903Z,0.00
2018-10-03T02:00:40.411Z,0.00
2018-10-03T02:01:40.381Z,0.00
2018-10-03T02:02:41.342Z,0.00
2018-10-03T02:03:40.324Z,0.00
2018-10-03T02:04:40.353Z,0.00
2018-10-03T02:05:40.839Z,0.00
2018-10-03T02:06:40.241Z,0.00
2018-10-03T02:07:40.841Z,0.00
2018-10-03T02:08:40.878Z,0.00
2018-10-03T02:09:40.403Z,0.00
2018-10-03T02:10:40.839Z,0.00
2018-10-03T02:11:40.086Z,0.00
2018-10-03T02:12:40.838Z,0.00
2018-10-03T02:13:40.841Z,0.00
2018-10-03T02:14:40.117Z,0.00
2018-10-03T02:15:39.987Z,0.00
2018-10-03T02:16:39.991Z,0.00
2018-10-03T02:17:40.845Z,0.00
2018-10-03T02:18:40.846Z,0.00
2018-10-03T02:19:40.843Z,0.00
2018-10-03T02:20:40.341Z,0.00
2018-10-03T02:21:39.897Z,0.00
2018-10-03T02:22:39.760Z,0.00
2018-10-03T02:23:39.732Z,0.00
2018-10-03T02:24:40.342Z,0.00
2018-10-03T02:25:40.349Z,0.00
2018-10-03T02:26:39.911Z,0.00
2018-10-03T02:27:39.615Z,0.00
2018-10-03T02:28:39.582Z,0.00
2018-10-03T02:29:40.345Z,0.00
2018-10-03T02:30:40.351Z,0.00
2018-10-03T02:31:39.909Z,0.00
2018-10-03T02:32:39.469Z,0.00
2018-10-03T02:33:39.433Z,0.00
2018-10-03T02:34:39.404Z,0.00
2018-10-03T02:35:39.373Z,0.00
2018-10-03T02:36:39.382Z,0.00
2018-10-03T02:37:39.363Z,0.00
2018-10-03T02:38:39.845Z,0.00
2018-10-03T02:39:39.844Z,0.00
2018-10-03T02:40:39.229Z,0.00
2018-10-03T02:41:39.198Z,0.00
2018-10-03T02:42:39.203Z,0.00
2018-10-03T02:43:39.143Z,0.00
2018-10-03T02:44:39.843Z,0.00
2018-10-03T02:45:39.844Z,0.00
2018-10-03T02:46:39.063Z,0.00
2018-10-03T02:47:39.076Z,0.00
2018-10-03T02:48:39.852Z,0.00
2018-10-03T02:49:38.962Z,0.00
2018-10-03T02:50:38.937Z,0.00
2018-10-03T02:51:39.847Z,0.00
2018-10-03T02:52:39.419Z,0.00
2018-10-03T02:53:38.915Z,0.00
2018-10-03T02:54:38.822Z,0.00
2018-10-03T02:55:39.354Z,0.00
2018-10-03T02:56:39.346Z,0.00
2018-10-03T02:57:39.350Z,0.00
2018-10-03T02:58:38.903Z,0.00
2018-10-03T02:59:38.665Z,0.00
2018-10-03T03:00:39.349Z,0.00
2018-10-03T03:01:38.633Z,0.00
2018-10-03T03:02:38.575Z,0.00
2018-10-03T03:03:38.616Z,0.00
2018-10-03T03:04:38.519Z,0.00
2018-10-03T03:05:39.357Z,0.00
2018-10-03T03:06:38.461Z,0.00
2018-10-03T03:07:38.447Z,0.00
2018-10-03T03:08:38.991Z,0.00
2018-10-03T03:09:38.369Z,0.00
2018-10-03T03:10:38.347Z,0.00
2018-10-03T03:11:38.854Z,0.00
2018-10-03T03:12:38.281Z,0.00
2018-10-03T03:13:38.296Z,0.00
2018-10-03T03:14:38.404Z,0.00
2018-10-03T03:15:38.856Z,0.00
2018-10-03T03:16:38.916Z,0.00
2018-10-03T03:17:38.133Z,0.00
2018-10-03T03:18:38.104Z,0.00
2018-10-03T03:19:38.410Z,0.00
2018-10-03T03:20:38.901Z,0.00
2018-10-03T03:21:38.024Z,0.00
2018-10-03T03:22:38.853Z,0.00
2018-10-03T03:23:37.956Z,0.00
2018-10-03T03:24:38.411Z,0.00
2018-10-03T03:25:38.877Z,0.00
2018-10-03T03:26:38.852Z,0.00
2018-10-03T03:27:38.355Z,0.00
2018-10-03T03:28:38.352Z,0.00
2018-10-03T03:29:37.907Z,0.00
2018-10-03T03:30:37.757Z,0.00
2018-10-03T03:31:38.363Z,0.00
2018-10-03T03:32:38.361Z,0.00
2018-10-03T03:33:37.653Z,0.00
2018-10-03T03:34:37.912Z,0.00
2018-10-03T03:35:38.760Z,0.00
2018-10-03T03:36:38.357Z,0.00
2018-10-03T03:37:37.534Z,0.00
2018-10-03T03:38:38.356Z,0.00
2018-10-03T03:39:38.360Z,0.00
2018-10-03T03:40:37.502Z,0.00
2018-10-03T03:41:38.354Z,0.00
2018-10-03T03:42:38.357Z,0.00
2018-10-03T03:43:37.855Z,0.00
2018-10-03T03:44:37.868Z,0.00
2018-10-03T03:45:37.336Z,0.00
2018-10-03T03:46:37.277Z,0.00
2018-10-03T03:47:37.246Z,0.00
2018-10-03T03:48:37.864Z,0.00
2018-10-03T03:49:37.173Z,0.00
2018-10-03T03:50:37.183Z,0.00
2018-10-03T03:51:37.862Z,0.00
2018-10-03T03:52:37.134Z,0.00
2018-10-03T03:53:37.055Z,0.00
2018-10-03T03:54:37.027Z,0.00
2018-10-03T03:55:37.039Z,0.00
2018-10-03T03:56:37.865Z,0.00
2018-10-03T03:57:37.862Z,0.00
2018-10-03T03:58:37.856Z,0.00
2018-10-03T03:59:37.858Z,0.00
2018-10-03T04:00:36.891Z,0.00
2018-10-03T04:01:36.872Z,0.00
2018-10-03T04:02:36.934Z,0.00
2018-10-03T04:03:37.363Z,0.00
2018-10-03T04:04:36.737Z,0.00
2018-10-03T04:05:37.360Z,0.00
2018-10-03T04:06:37.368Z,0.00
2018-10-03T04:07:36.884Z,0.00
2018-10-03T04:08:37.365Z,0.00
2018-10-03T04:09:36.578Z,0.00
2018-10-03T04:10:36.557Z,0.00
2018-10-03T04:11:36.940Z,0.00
2018-10-03T04:12:36.493Z,0.00
2018-10-03T04:13:36.462Z,0.00
2018-10-03T04:14:37.361Z,0.00
2018-10-03T04:15:37.358Z,0.00
2018-10-03T04:16:36.926Z,0.00
2018-10-03T04:17:36.347Z,0.00
2018-10-03T04:18:36.858Z,0.00
2018-10-03T04:19:36.281Z,0.00
2018-10-03T04:20:36.255Z,0.00
2018-10-03T04:21:37.014Z,0.00
2018-10-03T04:22:36.209Z,0.00
2018-10-03T04:23:36.162Z,0.00
2018-10-03T04:24:36.131Z,0.00
2018-10-03T04:25:36.105Z,0.00
2018-10-03T04:26:36.418Z,0.00
2018-10-03T04:27:37.399Z,0.00
2018-10-03T04:28:36.864Z,0.00
2018-10-03T04:29:36.016Z,0.00
2018-10-03T04:30:35.952Z,0.00
2018-10-03T04:31:36.867Z,0.00
2018-10-03T04:32:35.941Z,0.00
2018-10-03T04:33:36.373Z,0.00
2018-10-03T04:34:36.570Z,0.00
2018-10-03T04:35:35.867Z,0.00
2018-10-03T04:36:36.366Z,0.00
2018-10-03T04:37:35.789Z,0.00
2018-10-03T04:38:35.709Z,0.00
2018-10-03T04:39:35.728Z,0.00
2018-10-03T04:40:36.361Z,4.00
2018-10-03T04:41:35.619Z,4.00
2018-10-03T04:42:35.591Z,4.00
2018-10-03T04:43:35.921Z,0.00
2018-10-03T04:44:36.364Z,0.00
2018-10-03T04:45:36.382Z,4.00
2018-10-03T04:46:36.366Z,4.00
2018-10-03T04:47:35.438Z,8.00
2018-10-03T04:48:35.456Z,8.00
2018-10-03T04:49:36.366Z,8.00
2018-10-03T04:50:35.392Z,12.00
2018-10-03T04:51:35.867Z,12.00
2018-10-03T04:52:35.317Z,16.00
2018-10-03T04:53:35.305Z,12.00
2018-10-03T04:54:35.227Z,20.00
2018-10-03T04:55:35.200Z,28.00
2018-10-03T04:56:35.171Z,36.00
2018-10-03T04:57:35.867Z,36.00
2018-10-03T04:58:35.152Z,48.00
2018-10-03T04:59:35.130Z,56.00
2018-10-03T05:00:35.050Z,60.00
2018-10-03T05:01:35.865Z,68.00
2018-10-03T05:02:34.996Z,76.00
2018-10-03T05:03:35.003Z,76.00
2018-10-03T05:04:37.295Z,68.00
2018-10-03T05:05:35.885Z,60.00
2018-10-03T05:06:35.373Z,80.00
2018-10-03T05:07:35.377Z,108.00
2018-10-03T05:08:35.416Z,112.00
2018-10-03T05:09:34.838Z,100.00
2018-10-03T05:10:34.751Z,108.00
2018-10-03T05:11:34.720Z,132.00
2018-10-03T05:12:34.699Z,176.00
2018-10-03T05:13:35.373Z,228.00
2018-10-03T05:14:34.676Z,264.00
2018-10-03T05:15:35.370Z,336.00
2018-10-03T05:16:35.371Z,384.00
2018-10-03T05:17:34.568Z,424.00
2018-10-03T05:18:34.560Z,452.00
2018-10-03T05:19:34.924Z,476.00
2018-10-03T05:20:35.375Z,516.00
2018-10-03T05:21:35.378Z,552.00
2018-10-03T05:22:34.388Z,596.00
2018-10-03T05:23:34.433Z,648.00
2018-10-03T05:24:34.871Z,728.00
2018-10-03T05:25:34.306Z,760.00
2018-10-03T05:26:34.282Z,748.00
2018-10-03T05:27:34.878Z,740.00
2018-10-03T05:28:34.266Z,720.00
2018-10-03T05:29:34.879Z,764.00
2018-10-03T05:30:34.159Z,860.00
2018-10-03T05:31:34.171Z,996.00
2018-10-03T05:32:34.870Z,1060.00
2018-10-03T05:33:34.061Z,1116.00
2018-10-03T05:34:34.051Z,1060.00
2018-10-03T05:35:34.051Z,1020.00
2018-10-03T05:36:33.969Z,1024.00
2018-10-03T05:37:33.945Z,1012.00
2018-10-03T05:38:34.879Z,968.00
2018-10-03T05:39:33.886Z,1120.00
2018-10-03T05:40:35.421Z,1224.00
2018-10-03T05:41:33.830Z,1140.00
2018-10-03T05:42:33.925Z,1136.00
2018-10-03T05:43:33.762Z,1228.00
2018-10-03T05:44:34.380Z,1152.00
2018-10-03T05:45:35.287Z,1168.00
2018-10-03T05:46:33.721Z,1176.00
2018-10-03T05:47:34.375Z,1148.00
2018-10-03T05:48:34.383Z,1296.00
2018-10-03T05:49:33.588Z,1320.00
2018-10-03T05:50:33.559Z,1496.00
2018-10-03T05:51:33.922Z,1576.00
2018-10-03T05:52:33.503Z,1816.00
2018-10-03T05:53:33.507Z,2052.00
2018-10-03T05:54:34.430Z,2124.00
2018-10-03T05:55:33.417Z,2132.00
2018-10-03T05:56:33.438Z,1892.00
2018-10-03T05:57:33.345Z,1904.00
2018-10-03T05:58:33.343Z,2084.00
2018-10-03T05:59:33.308Z,2168.00
2018-10-03T06:00:33.262Z,2028.00
2018-10-03T06:01:33.267Z,2284.00
2018-10-03T06:02:33.263Z,2408.00
2018-10-03T06:03:33.178Z,2432.00
2018-10-03T06:04:33.138Z,2556.00
2018-10-03T06:05:33.113Z,2720.00
2018-10-03T06:06:33.083Z,2520.00
2018-10-03T06:07:33.099Z,2096.00
2018-10-03T06:08:33.020Z,1652.00
2018-10-03T06:09:32.992Z,1376.00
2018-10-03T06:10:32.967Z,1252.00
2018-10-03T06:11:32.934Z,1244.00
2018-10-03T06:12:32.952Z,1816.00
2018-10-03T06:13:32.879Z,2336.00
2018-10-03T06:14:32.848Z,2064.00
2018-10-03T06:15:32.849Z,1804.00
2018-10-03T06:16:32.785Z,1984.00
2018-10-03T06:17:32.800Z,2576.00
2018-10-03T06:18:32.778Z,2740.00
2018-10-03T06:19:32.725Z,1904.00
2018-10-03T06:20:32.664Z,1800.00
2018-10-03T06:21:32.635Z,2364.00
2018-10-03T06:22:32.670Z,3472.00
2018-10-03T06:23:32.574Z,3140.00
2018-10-03T06:24:32.545Z,2276.00
2018-10-03T06:25:32.520Z,2052.00
2018-10-03T06:26:32.492Z,2432.00
2018-10-03T06:27:32.516Z,3072.00
2018-10-03T06:28:32.431Z,3384.00
2018-10-03T06:29:32.402Z,3428.00
2018-10-03T06:30:32.378Z,3596.00
2018-10-03T06:31:32.342Z,3444.00
2018-10-03T06:32:32.356Z,3112.00
2018-10-03T06:33:32.398Z,2840.00
2018-10-03T06:34:32.256Z,3744.00
2018-10-03T06:35:32.275Z,5112.00
2018-10-03T06:36:32.203Z,5196.00
2018-10-03T06:37:32.169Z,5336.00
2018-10-03T06:38:32.438Z,4172.00
2018-10-03T06:39:32.162Z,3720.00
2018-10-03T06:40:32.182Z,3124.00
2018-10-03T06:41:32.045Z,2460.00
2018-10-03T06:42:32.016Z,2268.00
2018-10-03T06:43:31.990Z,2696.00
2018-10-03T06:44:31.958Z,3580.00
2018-10-03T06:45:32.492Z,3940.00
2018-10-03T06:46:31.900Z,3480.00
2018-10-03T06:47:31.872Z,2968.00
2018-10-03T06:48:31.845Z,3152.00
2018-10-03T06:49:31.813Z,2320.00
2018-10-03T06:50:31.840Z,2020.00
2018-10-03T06:51:32.385Z,2276.00
2018-10-03T06:52:31.729Z,3276.00
2018-10-03T06:53:31.697Z,3016.00
2018-10-03T06:54:31.664Z,3068.00
2018-10-03T06:55:31.691Z,3820.00
2018-10-03T06:56:31.616Z,2768.00
2018-10-03T06:57:31.577Z,3148.00
2018-10-03T06:58:31.554Z,4792.00
2018-10-03T06:59:31.516Z,3604.00
2018-10-03T07:00:31.556Z,3332.00
2018-10-03T07:01:31.612Z,3104.00
2018-10-03T07:02:31.435Z,2068.00
2018-10-03T07:03:31.411Z,2372.00
2018-10-03T07:04:31.374Z,3360.00
2018-10-03T07:05:32.388Z,5288.00
2018-10-03T07:06:31.370Z,5256.00
2018-10-03T07:07:31.304Z,5480.00
2018-10-03T07:08:31.305Z,6288.00
2018-10-03T07:09:31.231Z,5284.00
2018-10-03T07:10:31.200Z,5592.00
2018-10-03T07:11:31.295Z,5008.00
2018-10-03T07:12:31.140Z,5564.00
2018-10-03T07:13:31.147Z,5564.00
2018-10-03T07:14:31.090Z,5980.00
2018-10-03T07:15:31.798Z,6808.00
2018-10-03T07:16:34.794Z,7384.00
2018-10-03T07:17:31.007Z,8136.00
2018-10-03T07:18:31.025Z,8724.00
2018-10-03T07:19:30.981Z,8172.00
2018-10-03T07:20:30.925Z,7992.00
2018-10-03T07:21:30.881Z,8068.00
2018-10-03T07:22:30.860Z,7880.00
2018-10-03T07:23:30.863Z,7480.00
2018-10-03T07:24:30.838Z,6968.00
2018-10-03T07:25:30.765Z,5552.00
2018-10-03T07:26:30.735Z,3824.00
2018-10-03T07:27:30.718Z,3356.00
2018-10-03T07:28:30.724Z,3200.00
2018-10-03T07:29:30.684Z,4028.00
2018-10-03T07:30:30.644Z,4708.00
2018-10-03T07:31:30.599Z,3964.00
2018-10-03T07:32:30.605Z,4228.00
2018-10-03T07:33:30.593Z,6004.00
2018-10-03T07:34:30.510Z,6644.00
2018-10-03T07:35:30.485Z,5764.00
2018-10-03T07:36:30.449Z,6556.00
2018-10-03T07:37:30.421Z,7268.00
2018-10-03T07:38:30.434Z,9944.00
2018-10-03T07:39:30.422Z,10044.00
2018-10-03T07:40:30.343Z,8104.00
2018-10-03T07:41:30.308Z,9684.00
2018-10-03T07:42:30.281Z,7448.00
2018-10-03T07:43:30.255Z,5532.00
2018-10-03T07:44:30.900Z,4992.00
2018-10-03T07:45:30.194Z,6544.00
2018-10-03T07:46:30.180Z,6912.00
2018-10-03T07:47:30.137Z,6856.00
2018-10-03T07:48:30.109Z,5756.00
2018-10-03T07:49:30.136Z,7032.00
2018-10-03T07:50:30.056Z,6516.00
2018-10-03T07:51:30.023Z,8016.00
2018-10-03T07:52:29.999Z,6936.00
2018-10-03T07:53:29.970Z,5936.00
2018-10-03T07:54:29.981Z,6268.00
2018-10-03T07:55:29.964Z,9120.00
2018-10-03T07:56:29.890Z,6780.00
2018-10-03T07:57:29.876Z,5776.00
2018-10-03T07:58:29.825Z,6644.00
2018-10-03T07:59:29.813Z,6560.00
2018-10-03T08:00:29.889Z,5156.00
2018-10-03T08:01:29.745Z,5968.00
2018-10-03T08:02:29.756Z,7380.00
2018-10-03T08:03:29.684Z,9636.00
2018-10-03T08:04:29.662Z,10824.00
2018-10-03T08:05:29.627Z,9544.00
2018-10-03T08:06:29.655Z,8448.00
2018-10-03T08:07:29.583Z,7328.00
2018-10-03T08:08:29.665Z,7480.00
2018-10-03T08:09:29.525Z,7220.00
2018-10-03T08:10:29.511Z,7764.00
2018-10-03T08:11:29.518Z,5896.00
2018-10-03T08:12:29.429Z,4716.00
2018-10-03T08:13:30.408Z,4988.00
2018-10-03T08:14:29.374Z,5408.00
2018-10-03T08:15:29.351Z,8520.00
2018-10-03T08:16:29.368Z,7788.00
2018-10-03T08:17:29.403Z,5364.00
2018-10-03T08:18:29.276Z,6032.00
2018-10-03T08:19:29.238Z,9536.00
2018-10-03T08:20:29.900Z,6948.00
2018-10-03T08:21:29.183Z,7368.00
2018-10-03T08:22:29.229Z,6500.00
2018-10-03T08:23:29.122Z,5832.00
2018-10-03T08:24:29.116Z,5780.00
2018-10-03T08:25:29.067Z,8564.00
2018-10-03T08:26:29.040Z,7844.00
2018-10-03T08:27:29.065Z,6180.00
2018-10-03T08:28:28.983Z,5932.00
2018-10-03T08:29:28.957Z,4792.00
2018-10-03T08:30:28.930Z,4448.00
2018-10-03T08:31:28.896Z,4540.00
2018-10-03T08:32:28.948Z,4584.00
2018-10-03T08:33:29.401Z,6176.00
2018-10-03T08:34:28.861Z,6328.00
2018-10-03T08:35:28.787Z,7136.00
2018-10-03T08:36:28.759Z,8324.00
2018-10-03T08:37:28.728Z,7992.00
2018-10-03T08:38:28.707Z,8604.00
2018-10-03T08:39:28.719Z,6288.00
2018-10-03T08:40:28.669Z,7668.00
2018-10-03T08:41:28.637Z,8148.00
2018-10-03T08:42:28.591Z,10056.00
2018-10-03T08:43:28.564Z,9772.00
2018-10-03T08:44:29.010Z,9748.00
2018-10-03T08:45:28.560Z,8124.00
2018-10-03T08:46:28.479Z,6980.00
2018-10-03T08:47:28.445Z,7464.00
2018-10-03T08:48:28.463Z,8680.00
2018-10-03T08:49:28.453Z,11892.00
2018-10-03T08:50:28.380Z,10508.00
2018-10-03T08:51:28.340Z,11796.00
2018-10-03T08:52:28.309Z,11220.00
2018-10-03T08:53:28.298Z,9244.00
2018-10-03T08:54:28.304Z,8872.00
2018-10-03T08:55:28.281Z,10368.00
2018-10-03T08:56:28.200Z,9240.00
2018-10-03T08:57:28.177Z,9968.00
2018-10-03T08:58:28.324Z,10088.00
2018-10-03T08:59:28.117Z,10884.00
2018-10-03T09:00:28.146Z,8944.00
2018-10-03T09:01:28.064Z,9576.00
2018-10-03T09:02:28.039Z,11632.00
2018-10-03T09:03:28.008Z,10252.00
2018-10-03T09:04:27.983Z,9728.00
2018-10-03T09:05:28.008Z,9048.00
2018-10-03T09:06:27.932Z,7208.00
2018-10-03T09:07:27.904Z,6892.00
2018-10-03T09:08:27.876Z,6436.00
2018-10-03T09:09:27.848Z,7124.00
2018-10-03T09:10:27.869Z,7928.00
2018-10-03T09:11:27.852Z,10548.00
2018-10-03T09:12:27.765Z,9328.00
2018-10-03T09:13:27.961Z,10892.00
2018-10-03T09:14:27.728Z,10972.00
2018-10-03T09:15:27.706Z,10532.00
2018-10-03T09:16:27.700Z,9788.00
2018-10-03T09:17:27.637Z,9708.00
2018-10-03T09:18:27.654Z,9336.00
2018-10-03T09:19:27.576Z,8776.00
2018-10-03T09:20:27.554Z,8532.00
2018-10-03T09:21:27.598Z,11528.00
2018-10-03T09:22:27.583Z,9344.00
2018-10-03T09:23:27.468Z,8140.00
2018-10-03T09:24:27.487Z,8984.00
2018-10-03T09:25:27.415Z,11344.00
2018-10-03T09:26:27.390Z,13212.00
2018-10-03T09:27:27.359Z,9788.00
2018-10-03T09:28:27.397Z,8528.00
2018-10-03T09:29:27.370Z,11124.00
2018-10-03T09:30:27.284Z,10788.00
2018-10-03T09:31:27.250Z,8336.00
2018-10-03T09:32:27.226Z,11092.00
2018-10-03T09:33:27.240Z,9344.00
2018-10-03T09:34:27.223Z,8332.00
2018-10-03T09:35:27.143Z,8396.00
2018-10-03T09:36:27.121Z,10716.00
2018-10-03T09:37:27.087Z,12344.00
2018-10-03T09:38:27.103Z,11876.00
2018-10-03T09:39:27.553Z,8156.00
2018-10-03T09:40:27.017Z,5920.00
2018-10-03T09:41:26.986Z,6744.00
2018-10-03T09:42:26.960Z,9108.00
2018-10-03T09:43:26.936Z,9584.00
2018-10-03T09:44:27.010Z,12112.00
2018-10-03T09:45:26.873Z,10332.00
2018-10-03T09:46:27.420Z,10252.00
2018-10-03T09:47:26.828Z,9732.00
2018-10-03T09:48:27.420Z,10572.00
2018-10-03T09:49:26.817Z,9168.00
2018-10-03T09:50:26.749Z,9872.00
2018-10-03T09:51:26.711Z,12080.00
2018-10-03T09:52:26.683Z,11540.00
2018-10-03T09:53:26.655Z,9356.00
2018-10-03T09:54:26.681Z,9948.00
2018-10-03T09:55:26.644Z,9584.00
2018-10-03T09:56:26.618Z,10404.00
2018-10-03T09:57:26.558Z,10860.00
2018-10-03T09:58:26.545Z,11036.00
2018-10-03T09:59:26.511Z,11784.00
2018-10-03T10:00:26.519Z,12792.00
2018-10-03T10:01:26.497Z,10708.00
2018-10-03T10:02:26.417Z,8908.00
2018-10-03T10:03:26.389Z,9824.00
2018-10-03T10:04:26.369Z,8660.00
2018-10-03T10:05:26.334Z,8192.00
2018-10-03T10:06:26.472Z,7180.00
2018-10-03T10:07:26.285Z,6904.00
2018-10-03T10:08:26.259Z,6736.00
2018-10-03T10:09:26.236Z,9136.00
2018-10-03T10:10:26.208Z,11960.00
2018-10-03T10:11:26.332Z,10764.00
2018-10-03T10:12:26.157Z,8684.00
2018-10-03T10:13:26.126Z,6344.00
2018-10-03T10:14:26.103Z,3928.00
2018-10-03T10:15:26.092Z,4472.00
2018-10-03T10:16:26.085Z,6552.00
2018-10-03T10:17:26.015Z,8796.00
2018-10-03T10:18:25.994Z,10764.00
2018-10-03T10:19:25.975Z,9980.00
2018-10-03T10:20:25.947Z,8788.00
2018-10-03T10:21:25.969Z,7796.00
2018-10-03T10:22:25.958Z,9544.00
2018-10-03T10:23:25.900Z,9820.00
2018-10-03T10:24:25.826Z,8556.00
2018-10-03T10:25:26.471Z,6864.00
2018-10-03T10:26:26.479Z,7364.00
2018-10-03T10:27:25.786Z,7964.00
2018-10-03T10:28:26.423Z,9728.00
2018-10-03T10:29:26.427Z,10096.00
2018-10-03T10:30:25.662Z,10648.00
2018-10-03T10:31:25.640Z,11452.00
2018-10-03T10:32:25.769Z,11284.00
2018-10-03T10:33:25.587Z,10968.00
2018-10-03T10:34:25.557Z,10756.00
2018-10-03T10:35:26.333Z,8420.00
2018-10-03T10:36:26.438Z,6988.00
2018-10-03T10:37:25.520Z,7276.00
2018-10-03T10:38:25.457Z,7480.00
2018-10-03T10:39:25.432Z,9336.00
2018-10-03T10:40:25.550Z,10932.00
2018-10-03T10:41:25.563Z,8920.00
2018-10-03T10:42:25.357Z,7520.00
2018-10-03T10:43:25.441Z,7940.00
2018-10-03T10:44:25.289Z,9008.00
2018-10-03T10:45:25.316Z,7912.00
2018-10-03T10:46:25.297Z,8388.00
2018-10-03T10:47:25.206Z,9204.00
2018-10-03T10:48:25.184Z,10008.00
2018-10-03T10:49:25.157Z,11416.00
2018-10-03T10:50:25.196Z,10804.00
2018-10-03T10:51:25.150Z,10048.00
2018-10-03T10:52:25.078Z,10988.00
2018-10-03T10:53:25.045Z,10008.00
2018-10-03T10:54:25.020Z,8284.00
2018-10-03T10:55:25.929Z,8416.00
2018-10-03T10:56:25.005Z,8428.00
2018-10-03T10:57:24.939Z,8072.00
2018-10-03T10:58:25.002Z,8240.00
2018-10-03T10:59:24.888Z,8176.00
2018-10-03T11:00:24.858Z,10524.00
2018-10-03T11:01:24.842Z,11172.00
2018-10-03T11:02:25.441Z,10648.00
2018-10-03T11:03:24.880Z,10952.00
2018-10-03T11:04:24.990Z,8324.00
2018-10-03T11:05:25.457Z,6156.00
2018-10-03T11:06:25.432Z,6072.00
2018-10-03T11:07:24.671Z,6296.00
2018-10-03T11:08:25.439Z,7328.00
2018-10-03T11:09:24.670Z,8484.00
2018-10-03T11:10:24.597Z,9956.00
2018-10-03T11:11:24.564Z,10752.00
2018-10-03T11:12:24.540Z,10968.00
2018-10-03T11:13:24.517Z,9568.00
2018-10-03T11:14:24.541Z,7492.00
2018-10-03T11:15:24.490Z,6704.00
2018-10-03T11:16:24.439Z,5540.00
2018-10-03T11:17:24.403Z,4308.00
2018-10-03T11:18:24.941Z,4444.00
2018-10-03T11:19:24.393Z,5760.00
2018-10-03T11:20:24.320Z,7660.00
2018-10-03T11:21:24.295Z,8648.00
2018-10-03T11:22:24.269Z,10220.00
2018-10-03T11:23:24.356Z,10988.00
2018-10-03T11:24:24.422Z,10472.00
2018-10-03T11:25:24.232Z,11060.00
2018-10-03T11:26:24.158Z,9720.00
2018-10-03T11:27:24.139Z,9820.00
2018-10-03T11:28:24.107Z,8704.00
2018-10-03T11:29:24.122Z,7472.00
2018-10-03T11:30:24.107Z,6228.00
2018-10-03T11:31:24.031Z,6064.00
2018-10-03T11:32:23.998Z,5672.00
2018-10-03T11:33:23.976Z,5684.00
2018-10-03T11:34:23.961Z,5796.00
2018-10-03T11:35:23.984Z,5580.00
2018-10-03T11:36:23.897Z,5856.00
2018-10-03T11:37:23.871Z,6040.00
2018-10-03T11:38:23.913Z,5944.00
2018-10-03T11:39:23.819Z,6188.00
2018-10-03T11:40:23.855Z,6228.00
2018-10-03T11:41:23.799Z,6640.00
2018-10-03T11:42:23.735Z,7792.00
2018-10-03T11:43:23.704Z,8240.00
2018-10-03T11:44:23.678Z,7964.00
2018-10-03T11:45:23.653Z,9668.00
2018-10-03T11:46:23.993Z,9648.00
2018-10-03T11:47:24.445Z,8760.00
2018-10-03T11:48:23.571Z,9636.00
2018-10-03T11:49:23.551Z,9860.00
2018-10-03T11:50:23.529Z,9788.00
2018-10-03T11:51:23.532Z,9616.00
2018-10-03T11:52:23.460Z,10600.00
2018-10-03T11:53:23.510Z,9744.00
2018-10-03T11:54:23.414Z,9112.00
2018-10-03T11:55:23.955Z,8812.00
2018-10-03T11:56:23.500Z,10436.00
2018-10-03T11:57:23.330Z,10744.00
2018-10-03T11:58:23.300Z,10836.00
2018-10-03T11:59:23.314Z,9216.00
2018-10-03T12:00:23.251Z,6836.00
2018-10-03T12:01:23.498Z,4884.00
2018-10-03T12:02:23.202Z,4904.00
2018-10-03T12:03:23.255Z,6640.00
2018-10-03T12:04:23.159Z,9116.00
2018-10-03T12:05:23.120Z,9292.00
2018-10-03T12:06:23.092Z,7972.00
2018-10-03T12:07:23.110Z,7408.00
2018-10-03T12:08:23.042Z,6188.00
2018-10-03T12:09:23.025Z,4800.00
2018-10-03T12:10:22.988Z,4160.00
2018-10-03T12:11:22.966Z,4152.00
2018-10-03T12:12:22.979Z,4304.00
2018-10-03T12:13:22.902Z,4460.00
2018-10-03T12:14:22.880Z,4744.00
2018-10-03T12:15:22.849Z,4900.00
2018-10-03T12:16:22.869Z,5068.00
2018-10-03T12:17:22.808Z,5152.00
2018-10-03T12:18:23.450Z,5068.00
2018-10-03T12:19:22.745Z,4788.00
2018-10-03T12:20:22.757Z,4416.00
2018-10-03T12:21:22.686Z,4032.00
2018-10-03T12:22:22.683Z,3744.00
2018-10-03T12:23:22.629Z,3656.00
2018-10-03T12:24:23.452Z,3604.00
2018-10-03T12:25:22.733Z,3600.00
2018-10-03T12:26:22.603Z,3596.00
2018-10-03T12:27:22.527Z,3636.00
2018-10-03T12:28:22.513Z,3688.00
2018-10-03T12:29:23.449Z,3748.00
2018-10-03T12:30:22.440Z,3776.00
2018-10-03T12:31:22.607Z,3856.00